Terminal Aerodrome Forecast
Issued by NWS

Home | Current Version | Previous Version | Text Only | Print | Product List | Glossary On
Versions: 1 2 3 4 5 6 7 8 9 10 11 12 13 14 15 16 17 18 19 20 21 22
000
FTUS46 KMTR 202323
TAFMRY
TAF
KMRY 202323Z 2100/2124 27010KT P6SM BKN011
     FM210200 26008KT P6SM SCT010
     FM210600 24006KT P6SM OVC010
     FM210800 23004KT P6SM OVC007
     FM211800 28005KT P6SM SCT011
     FM212000 28010KT P6SM SKC=

USA.gov is the U.S. government's official web portal to all federal, state and local government web resources and services.